Time;durP1;ratioP1;P1;durP2;ratioP2;P2;SDS_P1;SDS_P2;PMS_P1;PMS_P2;Temp;Humidity;BMP_temperature;BMP_pressure;BME280_temperature;BME280_humidity;BME280_pressure;Samples;Min_cycle;Max_cycle;Signal;HPM_P1;HPM_P2
2022/08/31 00:05:58;;;;;;;0.50;0.50;;;12.80;99.90;;;;;;5023271;28;20111;-81
2022/08/31 00:08:24;;;;;;;0.30;0.30;;;12.80;99.90;;;;;;5027268;28;20025;-81
2022/08/31 00:10:50;;;;;;;0.50;0.50;;;12.70;99.90;;;;;;5028295;28;20056;-82
2022/08/31 00:13:16;;;;;;;0.80;0.52;;;12.70;99.90;;;;;;5025434;28;20029;-81
2022/08/31 00:15:42;;;;;;;1.17;0.40;;;12.70;99.90;;;;;;5023364;28;20127;-81
2022/08/31 00:18:08;;;;;;;0.60;0.40;;;12.70;99.90;;;;;;5026646;28;20040;-81
2022/08/31 00:20:42;;;;;;;0.22;0.13;;;12.70;99.90;;;;;;5024803;28;20034;-81
2022/08/31 00:23:10;;;;;;;0.57;0.57;;;12.60;99.90;;;;;;5026089;28;20100;-81
2022/08/31 00:25:38;;;;;;;0.47;0.40;;;12.60;99.90;;;;;;5021306;28;20041;-81
2022/08/31 00:28:04;;;;;;;0.50;0.50;;;12.60;99.90;;;;;;5026482;28;20515;-81
2022/08/31 00:30:30;;;;;;;1.05;0.50;;;12.50;99.90;;;;;;5026126;28;20092;-81
2022/08/31 00:32:56;;;;;;;4.53;0.90;;;12.50;99.90;;;;;;5025075;28;20033;-81
2022/08/31 00:35:22;;;;;;;0.50;0.50;;;12.50;99.90;;;;;;5025224;28;20056;-81
2022/08/31 00:37:47;;;;;;;0.35;0.35;;;12.50;99.90;;;;;;5026318;28;20112;-81
2022/08/31 00:40:13;;;;;;;0.55;0.55;;;12.50;99.90;;;;;;5027119;28;20094;-81
2022/08/31 00:42:39;;;;;;;0.47;0.47;;;12.40;99.90;;;;;;5024373;28;20144;-81
2022/08/31 00:45:06;;;;;;;0.52;0.52;;;12.40;99.90;;;;;;5025542;28;20042;-81
2022/08/31 00:47:31;;;;;;;0.57;0.57;;;12.40;99.90;;;;;;5022924;28;20025;-81
2022/08/31 00:49:58;;;;;;;0.47;0.47;;;12.40;99.90;;;;;;5022097;28;20049;-81
2022/08/31 00:52:29;;;;;;;0.52;0.52;;;12.40;99.90;;;;;;5026097;28;20502;-80
2022/08/31 00:55:01;;;;;;;0.60;0.60;;;12.30;99.90;;;;;;5027269;28;20044;-81
2022/08/31 00:57:32;;;;;;;0.40;0.40;;;12.30;99.90;;;;;;5024274;28;20041;-81
2022/08/31 01:00:00;;;;;;;0.50;0.50;;;12.30;99.90;;;;;;5023182;28;20428;-81
2022/08/31 01:02:26;;;;;;;1.13;0.68;;;12.30;99.90;;;;;;5022095;28;20033;-81
2022/08/31 01:04:51;;;;;;;0.40;0.40;;;12.30;99.90;;;;;;5027169;28;20427;-81
2022/08/31 01:07:17;;;;;;;0.82;0.80;;;12.30;99.90;;;;;;5024593;28;20045;-81
2022/08/31 01:09:43;;;;;;;1.00;0.60;;;12.30;99.90;;;;;;5006840;28;20108;-81
2022/08/31 01:12:10;;;;;;;0.52;0.52;;;12.40;99.90;;;;;;5026802;28;20040;-81
2022/08/31 01:14:38;;;;;;;0.45;0.45;;;12.50;99.90;;;;;;5024394;28;20079;-81
2022/08/31 01:17:05;;;;;;;0.50;0.50;;;12.60;99.90;;;;;;5024370;28;20472;-81
2022/08/31 01:19:44;;;;;;;1.40;0.57;;;12.80;99.90;;;;;;5024287;28;20444;-81
2022/08/31 01:22:38;;;;;;;1.40;0.70;;;12.90;99.90;;;;;;5024001;28;20026;-81
2022/08/31 01:25:04;;;;;;;0.88;0.70;;;13.10;99.90;;;;;;5005330;28;20034;-81
2022/08/31 01:27:34;;;;;;;0.55;0.50;;;13.10;99.90;;;;;;5028362;28;20025;-81
2022/08/31 01:30:02;;;;;;;0.73;0.55;;;13.30;99.90;;;;;;5024475;28;20045;-81
2022/08/31 01:32:28;;;;;;;0.93;0.60;;;13.40;99.90;;;;;;5028348;28;20045;-81
2022/08/31 01:34:53;;;;;;;0.50;0.50;;;13.50;99.90;;;;;;5029765;28;20084;-81
2022/08/31 01:37:25;;;;;;;0.40;0.40;;;13.50;99.90;;;;;;5028315;28;20040;-81
2022/08/31 01:39:50;;;;;;;0.68;0.68;;;13.60;99.90;;;;;;5024128;28;20033;-81
2022/08/31 01:42:17;;;;;;;0.40;0.40;;;13.70;99.90;;;;;;5026411;28;20392;-81
2022/08/31 01:44:43;;;;;;;3.10;0.70;;;13.80;99.90;;;;;;5029416;28;20036;-81
2022/08/31 01:47:08;;;;;;;1.10;0.68;;;13.80;99.90;;;;;;5027547;28;20025;-80
2022/08/31 01:49:34;;;;;;;0.60;0.60;;;13.80;99.90;;;;;;5026867;28;20028;-81
2022/08/31 01:52:00;;;;;;;0.70;0.70;;;13.90;99.90;;;;;;5028387;28;20022;-81
2022/08/31 01:54:26;;;;;;;0.40;0.40;;;13.90;99.90;;;;;;5028883;28;20026;-81
2022/08/31 01:56:52;;;;;;;0.50;0.50;;;13.90;99.90;;;;;;5025572;28;20034;-81
2022/08/31 01:59:20;;;;;;;0.55;0.55;;;14.00;99.90;;;;;;5030259;28;20037;-80
2022/08/31 02:01:49;;;;;;;0.88;0.70;;;14.00;99.90;;;;;;5024532;28;20056;-81
2022/08/31 02:04:16;;;;;;;0.63;0.63;;;14.00;99.90;;;;;;5029676;28;20029;-81
2022/08/31 02:06:44;;;;;;;0.50;0.50;;;14.00;99.90;;;;;;5027282;28;20104;-81
2022/08/31 02:09:10;;;;;;;0.50;0.50;;;14.00;99.90;;;;;;5027458;28;20030;-81
2022/08/31 02:11:36;;;;;;;0.70;0.40;;;14.00;99.90;;;;;;5025497;28;20041;-81
2022/08/31 02:14:01;;;;;;;0.55;0.55;;;14.00;99.90;;;;;;5030656;28;20030;-80
2022/08/31 02:16:27;;;;;;;0.50;0.50;;;13.90;99.90;;;;;;5027347;28;20102;-80
2022/08/31 02:18:53;;;;;;;0.57;0.50;;;13.90;99.90;;;;;;5024985;28;20125;-81
2022/08/31 02:21:18;;;;;;;0.85;0.70;;;13.90;99.90;;;;;;5029534;28;20419;-81
2022/08/31 02:23:44;;;;;;;0.55;0.55;;;13.80;99.90;;;;;;5026141;28;20041;-81
2022/08/31 02:26:10;;;;;;;1.08;0.50;;;13.70;99.90;;;;;;5025021;28;20028;-80
2022/08/31 02:28:36;;;;;;;2.00;0.80;;;13.70;99.90;;;;;;5022557;28;20124;-81
2022/08/31 02:31:02;;;;;;;0.90;0.60;;;13.80;99.90;;;;;;5029196;28;20073;-81
2022/08/31 02:33:28;;;;;;;1.23;0.60;;;13.70;99.90;;;;;;5030280;28;20029;-81
2022/08/31 02:35:54;;;;;;;0.88;0.88;;;13.70;99.90;;;;;;5027440;28;20041;-81
2022/08/31 02:38:21;;;;;;;0.70;0.70;;;13.70;99.90;;;;;;5027209;28;20028;-81
2022/08/31 02:40:48;;;;;;;0.73;0.70;;;13.70;99.90;;;;;;5027878;28;20036;-81
2022/08/31 02:43:13;;;;;;;0.93;0.68;;;13.70;99.90;;;;;;5026934;28;20486;-81
2022/08/31 02:45:39;;;;;;;0.85;0.70;;;13.70;99.90;;;;;;5026443;28;20029;-81
2022/08/31 02:48:06;;;;;;;0.73;0.70;;;13.70;99.90;;;;;;5026427;28;20033;-82
2022/08/31 02:50:32;;;;;;;1.05;0.70;;;13.70;99.90;;;;;;5026560;28;20034;-81
2022/08/31 02:52:58;;;;;;;0.82;0.77;;;13.70;99.90;;;;;;5029366;28;20435;-81
2022/08/31 02:55:27;;;;;;;1.25;0.70;;;13.70;99.90;;;;;;5026880;28;20056;-82
2022/08/31 02:57:52;;;;;;;0.68;0.68;;;13.70;99.90;;;;;;5024780;28;20034;-81
2022/08/31 03:00:20;;;;;;;1.05;0.70;;;13.70;99.90;;;;;;5026911;28;20051;-81
2022/08/31 03:02:47;;;;;;;0.90;0.68;;;13.60;99.90;;;;;;5027144;28;20121;-81
2022/08/31 03:05:12;;;;;;;1.45;1.00;;;13.50;99.90;;;;;;5028256;28;20123;-81
2022/08/31 03:07:38;;;;;;;0.90;0.70;;;13.40;99.90;;;;;;5024616;28;20462;-81
2022/08/31 03:10:07;;;;;;;0.73;0.57;;;13.20;99.90;;;;;;5029222;28;20083;-81
2022/08/31 03:12:33;;;;;;;0.70;0.70;;;13.10;99.90;;;;;;5027588;28;20083;-81
2022/08/31 03:14:59;;;;;;;0.85;0.60;;;12.90;99.90;;;;;;5027227;28;20037;-81
2022/08/31 03:17:24;;;;;;;5.60;1.67;;;12.80;99.90;;;;;;5026467;28;20111;-81
2022/08/31 03:19:50;;;;;;;1.50;0.63;;;12.70;99.90;;;;;;5025360;28;20033;-81
2022/08/31 03:22:15;;;;;;;0.75;0.75;;;12.60;99.90;;;;;;5025503;28;20032;-81
2022/08/31 03:24:42;;;;;;;0.57;0.57;;;12.50;99.90;;;;;;5028674;28;20037;-81
2022/08/31 03:27:08;;;;;;;1.20;0.63;;;12.50;99.90;;;;;;5025241;28;20030;-81
2022/08/31 03:29:33;;;;;;;1.48;0.80;;;12.40;99.90;;;;;;5026946;28;20025;-81
2022/08/31 03:32:00;;;;;;;1.85;0.75;;;12.30;99.90;;;;;;5026234;28;20033;-81
2022/08/31 03:34:26;;;;;;;1.00;0.82;;;12.30;99.90;;;;;;5026229;28;20037;-81
2022/08/31 03:36:51;;;;;;;0.80;0.80;;;12.30;99.90;;;;;;5027311;28;20083;-81
2022/08/31 03:39:17;;;;;;;0.70;0.70;;;12.30;99.90;;;;;;5029125;28;20684;-81
2022/08/31 03:41:42;;;;;;;0.57;0.57;;;12.30;99.90;;;;;;5024442;28;21334;-81
2022/08/31 03:44:08;;;;;;;1.55;0.82;;;12.30;99.90;;;;;;5024224;28;20236;-81
2022/08/31 03:46:34;;;;;;;0.50;0.50;;;12.20;99.90;;;;;;5022910;28;20036;-81
2022/08/31 03:49:01;;;;;;;1.67;0.90;;;12.20;99.90;;;;;;5026142;28;20060;-81
2022/08/31 03:51:27;;;;;;;0.98;0.98;;;12.10;99.90;;;;;;5025948;28;20025;-81
2022/08/31 03:53:52;;;;;;;2.40;0.60;;;12.10;99.90;;;;;;5023725;28;20044;-82
2022/08/31 03:56:18;;;;;;;0.65;0.65;;;12.10;99.90;;;;;;5027157;28;20120;-82
2022/08/31 03:58:44;;;;;;;0.70;0.70;;;12.10;99.90;;;;;;5025094;28;20387;-81
2022/08/31 04:01:12;;;;;;;0.77;0.70;;;12.00;99.90;;;;;;5026534;28;20033;-82
2022/08/31 04:03:37;;;;;;;1.25;0.90;;;12.10;99.90;;;;;;5022481;28;20033;-82
2022/08/31 04:06:10;;;;;;;2.55;0.77;;;12.00;99.90;;;;;;5026157;28;20375;-81
2022/08/31 04:08:36;;;;;;;1.40;0.75;;;12.00;99.90;;;;;;5023343;28;20025;-82
2022/08/31 04:11:10;;;;;;;1.30;0.45;;;11.90;99.90;;;;;;5025605;28;20071;-82
2022/08/31 04:13:37;;;;;;;2.67;0.95;;;11.90;99.90;;;;;;5024551;28;20420;-82
2022/08/31 04:16:06;;;;;;;0.60;0.60;;;11.90;99.90;;;;;;5024246;28;20026;-82
2022/08/31 04:18:32;;;;;;;0.38;0.38;;;11.80;99.90;;;;;;5025517;28;20547;-82
2022/08/31 04:20:58;;;;;;;2.45;0.80;;;11.80;99.90;;;;;;5025896;28;20037;-82
2022/08/31 04:23:28;;;;;;;1.17;0.88;;;11.80;99.90;;;;;;5022220;28;20032;-82
2022/08/31 04:25:53;;;;;;;1.13;1.02;;;11.80;99.90;;;;;;5025977;28;20395;-81
2022/08/31 04:28:19;;;;;;;0.70;0.70;;;11.80;99.90;;;;;;5025024;28;20148;-82
2022/08/31 04:30:44;;;;;;;1.95;0.80;;;11.80;99.90;;;;;;5007505;28;20037;-82
2022/08/31 04:33:10;;;;;;;0.60;0.60;;;11.80;99.90;;;;;;5025407;28;20029;-82
2022/08/31 04:35:38;;;;;;;0.95;0.90;;;11.80;99.90;;;;;;5023899;28;20058;-82
2022/08/31 04:38:04;;;;;;;1.13;0.75;;;11.80;99.90;;;;;;5025588;28;20029;-82
2022/08/31 04:40:29;;;;;;;0.90;0.90;;;11.80;99.90;;;;;;5023389;28;20116;-79
2022/08/31 04:42:55;;;;;;;1.25;0.82;;;11.80;99.90;;;;;;5024440;28;20537;-78
2022/08/31 04:45:20;;;;;;;0.90;0.80;;;11.80;99.90;;;;;;5024877;28;20104;-82
2022/08/31 04:47:46;;;;;;;6.18;0.77;;;11.80;99.90;;;;;;5025525;28;20021;-81
2022/08/31 04:50:14;;;;;;;1.08;0.90;;;11.80;99.90;;;;;;5030280;28;20025;-81
2022/08/31 04:52:41;;;;;;;1.35;1.00;;;11.80;99.90;;;;;;5024812;28;20100;-80
2022/08/31 04:55:06;;;;;;;4.10;0.70;;;11.80;99.90;;;;;;5017305;28;20079;-78
2022/08/31 04:57:35;;;;;;;1.65;1.23;;;11.80;99.90;;;;;;5019311;28;20462;-78
2022/08/31 05:00:02;;;;;;;2.60;1.00;;;11.80;99.90;;;;;;5015926;28;20039;-78
2022/08/31 05:02:27;;;;;;;0.90;0.60;;;11.90;99.90;;;;;;5016122;28;20037;-78
2022/08/31 05:04:53;;;;;;;0.90;0.90;;;11.90;99.90;;;;;;5018829;28;20144;-78
2022/08/31 05:07:18;;;;;;;0.65;0.65;;;11.90;99.90;;;;;;5023427;28;20530;-78
2022/08/31 05:09:44;;;;;;;1.02;0.95;;;11.90;99.90;;;;;;5018856;28;20441;-79
2022/08/31 05:12:09;;;;;;;0.82;0.80;;;12.00;99.90;;;;;;5015868;28;20029;-83
2022/08/31 05:14:35;;;;;;;1.15;0.82;;;12.10;99.90;;;;;;5020158;28;20391;-81
2022/08/31 05:17:00;;;;;;;1.30;1.02;;;12.10;99.90;;;;;;5023058;28;20025;-81
2022/08/31 05:19:30;;;;;;;3.72;1.13;;;12.20;99.90;;;;;;5025703;28;20048;-82
2022/08/31 05:21:56;;;;;;;6.88;0.70;;;12.10;99.90;;;;;;5022853;28;20096;-82
2022/08/31 05:24:22;;;;;;;2.78;0.88;;;12.20;99.90;;;;;;5022520;28;20030;-79
2022/08/31 05:26:50;;;;;;;0.98;0.70;;;12.30;99.90;;;;;;5023449;28;20108;-80
2022/08/31 05:29:27;;;;;;;1.05;0.90;;;12.30;99.90;;;;;;5023271;28;20124;-80
2022/08/31 05:31:53;;;;;;;0.95;0.88;;;12.40;99.90;;;;;;5019746;28;20053;-80
2022/08/31 05:34:20;;;;;;;1.15;1.05;;;12.40;99.90;;;;;;5025087;28;20101;-80
2022/08/31 05:36:50;;;;;;;0.82;0.80;;;12.40;99.90;;;;;;5025821;28;20045;-80
2022/08/31 05:39:16;;;;;;;0.75;0.70;;;12.40;99.90;;;;;;5024408;28;20080;-80
2022/08/31 05:41:43;;;;;;;0.73;0.73;;;12.50;99.90;;;;;;5024623;28;20038;-80
2022/08/31 05:44:12;;;;;;;1.15;0.90;;;12.50;99.90;;;;;;5025872;28;20087;-80
2022/08/31 05:46:41;;;;;;;0.75;0.73;;;12.60;99.90;;;;;;5024559;28;20396;-80
2022/08/31 05:49:08;;;;;;;0.88;0.88;;;12.70;99.90;;;;;;5027069;28;20100;-81
2022/08/31 05:51:34;;;;;;;2.25;1.08;;;12.70;99.90;;;;;;5024240;28;20026;-80
2022/08/31 05:54:00;;;;;;;0.98;0.55;;;12.80;99.90;;;;;;5025761;28;20037;-80
2022/08/31 05:56:26;;;;;;;0.85;0.82;;;12.90;99.90;;;;;;5025635;28;20049;-79
2022/08/31 05:58:52;;;;;;;1.17;0.98;;;13.00;99.90;;;;;;5027140;28;20053;-79
2022/08/31 06:01:22;;;;;;;1.13;0.90;;;13.00;99.90;;;;;;5025086;28;20025;-79
2022/08/31 06:03:49;;;;;;;0.75;0.60;;;13.00;99.90;;;;;;5023742;28;20025;-85
2022/08/31 06:06:15;;;;;;;0.85;0.85;;;13.10;99.90;;;;;;5023766;28;20056;-84
2022/08/31 06:08:41;;;;;;;0.88;0.80;;;13.10;99.90;;;;;;5024255;28;20034;-86
2022/08/31 06:11:14;;;;;;;1.52;1.00;;;13.20;99.90;;;;;;5025911;28;20105;-84
2022/08/31 06:13:40;;;;;;;0.52;0.52;;;13.20;99.90;;;;;;5029672;28;20095;-86
2022/08/31 06:16:08;;;;;;;0.50;0.50;;;13.30;99.90;;;;;;5029511;28;20044;-85
2022/08/31 06:18:33;;;;;;;0.60;0.60;;;13.40;99.90;;;;;;5029330;28;20113;-85
2022/08/31 06:21:08;;;;;;;0.60;0.60;;;13.40;99.90;;;;;;5029631;28;20451;-86
2022/08/31 06:23:36;;;;;;;0.75;0.75;;;13.50;99.90;;;;;;5028856;28;20594;-84
2022/08/31 06:26:11;;;;;;;0.47;0.47;;;13.60;99.90;;;;;;5028663;28;20021;-86
2022/08/31 06:28:37;;;;;;;2.10;0.70;;;13.80;99.90;;;;;;5028627;28;20033;-86
2022/08/31 06:31:10;;;;;;;0.98;0.60;;;13.90;99.90;;;;;;5026198;28;20046;-86
2022/08/31 06:33:37;;;;;;;0.57;0.57;;;14.00;99.90;;;;;;5029674;28;20044;-85
2022/08/31 06:36:07;;;;;;;1.35;0.77;;;14.00;99.90;;;;;;5029191;28;20033;-80
2022/08/31 06:38:32;;;;;;;1.25;0.50;;;14.10;99.90;;;;;;5028890;28;20037;-82
2022/08/31 06:40:58;;;;;;;0.65;0.50;;;14.20;99.90;;;;;;5029189;28;20037;-82
2022/08/31 06:43:23;;;;;;;2.28;0.55;;;14.30;99.90;;;;;;5026197;28;20029;-79
2022/08/31 06:45:49;;;;;;;1.67;0.63;;;14.40;99.90;;;;;;5036299;28;20025;-80
2022/08/31 06:48:14;;;;;;;2.83;1.35;;;14.50;99.90;;;;;;5032873;28;20380;-80
2022/08/31 06:50:40;;;;;;;1.88;0.57;;;14.60;99.90;;;;;;5025528;28;20053;-82
2022/08/31 06:53:06;;;;;;;0.50;0.50;;;14.70;99.90;;;;;;5024385;28;20026;-79
2022/08/31 06:55:32;;;;;;;1.17;0.80;;;14.80;99.90;;;;;;5028754;28;20029;-84
2022/08/31 06:57:58;;;;;;;0.57;0.50;;;14.90;99.90;;;;;;5027743;28;20021;-83
2022/08/31 07:00:23;;;;;;;0.60;0.60;;;15.10;99.90;;;;;;5028942;28;20370;-81
2022/08/31 07:02:49;;;;;;;0.45;0.40;;;15.10;99.90;;;;;;5024579;28;20053;-82
2022/08/31 07:05:14;;;;;;;0.65;0.50;;;15.30;99.90;;;;;;5025544;28;20029;-84
2022/08/31 07:07:43;;;;;;;0.50;0.50;;;15.40;99.90;;;;;;5028115;28;20032;-85
2022/08/31 07:10:12;;;;;;;0.50;0.50;;;15.50;99.90;;;;;;5027849;28;20415;-85
2022/08/31 07:12:37;;;;;;;0.73;0.45;;;15.60;99.90;;;;;;5029898;28;20025;-86
2022/08/31 07:15:03;;;;;;;0.38;0.38;;;15.60;99.90;;;;;;5027897;28;20024;-86
2022/08/31 07:17:30;;;;;;;0.40;0.40;;;15.60;99.90;;;;;;5029393;28;20483;-86
2022/08/31 07:19:56;;;;;;;0.17;0.17;;;15.60;99.90;;;;;;5027984;28;20523;-86
2022/08/31 07:22:21;;;;;;;0.40;0.38;;;15.80;99.90;;;;;;5029099;28;20029;-86
2022/08/31 07:24:47;;;;;;;0.50;0.50;;;15.90;99.90;;;;;;5026707;28;20484;-86
2022/08/31 07:27:17;;;;;;;0.55;0.50;;;15.90;99.90;;;;;;5027428;28;20028;-86
2022/08/31 07:29:42;;;;;;;0.63;0.55;;;16.00;99.90;;;;;;5027886;28;20026;-84
2022/08/31 07:32:09;;;;;;;0.45;0.45;;;16.10;99.90;;;;;;5029204;28;20029;-85
2022/08/31 07:34:36;;;;;;;0.40;0.40;;;16.10;99.90;;;;;;5027568;28;20033;-86
2022/08/31 07:42:37;;;;;;;0.40;0.40;;;16.40;99.90;;;;;;5020573;28;20052;-84
2022/08/31 07:45:06;;;;;;;0.55;0.50;;;16.50;99.90;;;;;;5022918;28;20030;-85
2022/08/31 07:47:32;;;;;;;0.30;0.30;;;16.50;99.90;;;;;;5027852;28;20079;-84
2022/08/31 07:49:59;;;;;;;0.28;0.28;;;16.50;99.90;;;;;;5028785;28;20029;-83
2022/08/31 07:52:32;;;;;;;0.52;0.32;;;16.60;99.90;;;;;;5010704;28;20044;-83
2022/08/31 07:55:05;;;;;;;0.32;0.32;;;16.80;99.90;;;;;;5026029;28;20026;-82
2022/08/31 07:57:35;;;;;;;0.32;0.30;;;17.00;99.90;;;;;;5027849;28;20108;-82
2022/08/31 08:00:07;;;;;;;0.30;0.30;;;17.00;99.90;;;;;;5023835;28;20549;-82
2022/08/31 08:02:37;;;;;;;0.40;0.40;;;17.10;99.90;;;;;;5021438;28;20045;-82
2022/08/31 08:05:05;;;;;;;0.40;0.40;;;17.20;99.90;;;;;;5026486;28;20034;-82
2022/08/31 08:07:32;;;;;;;0.30;0.30;;;17.30;99.90;;;;;;5027591;28;20029;-81
2022/08/31 08:09:59;;;;;;;0.43;0.43;;;17.40;99.90;;;;;;5027432;28;20018;-82
2022/08/31 08:12:25;;;;;;;0.75;0.50;;;17.60;99.90;;;;;;5027810;28;20029;-83
2022/08/31 08:14:53;;;;;;;0.50;0.47;;;17.70;99.90;;;;;;5027618;28;20476;-82
2022/08/31 08:17:19;;;;;;;0.68;0.55;;;17.90;99.90;;;;;;5027698;28;20042;-82
2022/08/31 08:19:44;;;;;;;1.35;0.50;;;17.90;99.90;;;;;;5026614;28;20021;-81
2022/08/31 08:22:09;;;;;;;0.35;0.35;;;18.00;99.90;;;;;;5026357;28;20057;-82
2022/08/31 08:24:35;;;;;;;2.92;0.60;;;18.10;99.90;;;;;;5028214;28;20028;-80
2022/08/31 08:27:01;;;;;;;0.30;0.30;;;18.10;99.90;;;;;;5027691;28;20387;-82
2022/08/31 08:29:26;;;;;;;0.80;0.50;;;18.20;99.90;;;;;;5026294;28;20440;-81
2022/08/31 08:31:53;;;;;;;0.93;0.43;;;18.20;99.90;;;;;;5026071;28;20045;-82
2022/08/31 08:34:20;;;;;;;0.88;0.45;;;18.30;99.90;;;;;;5028211;28;20396;-81
2022/08/31 08:36:46;;;;;;;0.28;0.28;;;18.30;99.90;;;;;;5028048;28;20028;-81
2022/08/31 08:39:12;;;;;;;0.85;0.45;;;18.40;99.90;;;;;;5026157;28;20029;-82
2022/08/31 08:41:40;;;;;;;0.47;0.30;;;18.50;99.90;;;;;;5027011;28;20040;-82
2022/08/31 08:44:15;;;;;;;0.22;0.22;;;18.60;99.90;;;;;;5027654;28;20484;-81
2022/08/31 08:46:56;;;;;;;0.63;0.47;;;18.50;99.90;;;;;;5026618;28;20693;-82
2022/08/31 08:49:34;;;;;;;0.50;0.50;;;18.60;99.90;;;;;;5025386;28;20032;-81
2022/08/31 08:52:19;;;;;;;0.80;0.45;;;18.90;99.90;;;;;;5028253;28;20045;-82
2022/08/31 08:54:48;;;;;;;0.30;0.30;;;19.20;99.90;;;;;;5027950;28;20022;-83
2022/08/31 08:57:19;;;;;;;1.15;0.52;;;19.40;99.90;;;;;;5027785;28;20056;-85
2022/08/31 08:59:46;;;;;;;0.65;0.65;;;19.60;99.90;;;;;;5021453;28;20029;-83
2022/08/31 09:02:22;;;;;;;0.40;0.40;;;19.40;98.80;;;;;;5024409;28;20104;-82
2022/08/31 09:04:58;;;;;;;0.75;0.50;;;19.70;99.30;;;;;;5025561;28;20021;-83
2022/08/31 09:07:57;;;;;;;2.25;1.13;;;19.90;97.80;;;;;;5027644;28;20031;-83
2022/08/31 09:10:40;;;;;;;0.32;0.32;;;20.00;98.40;;;;;;5027160;28;20096;-83
2022/08/31 09:13:24;;;;;;;1.98;0.43;;;20.10;97.60;;;;;;5026695;28;20037;-82
2022/08/31 09:16:16;;;;;;;0.43;0.43;;;20.00;97.30;;;;;;5027249;28;20123;-82
2022/08/31 09:18:55;;;;;;;0.43;0.40;;;20.00;98.50;;;;;;4984928;28;20033;-82
2022/08/31 09:21:29;;;;;;;1.15;0.30;;;20.00;97.20;;;;;;5026507;28;20059;-83
2022/08/31 09:24:18;;;;;;;1.65;0.70;;;20.20;97.30;;;;;;5027398;28;20036;-82
2022/08/31 09:27:16;;;;;;;0.45;0.38;;;19.90;97.90;;;;;;5025861;28;20072;-83
2022/08/31 09:29:45;;;;;;;0.28;0.28;;;20.00;96.80;;;;;;5016517;28;20029;-83
2022/08/31 09:32:21;;;;;;;0.50;0.50;;;20.20;97.60;;;;;;5025509;28;20502;-82
2022/08/31 09:34:54;;;;;;;0.32;0.32;;;20.40;96.00;;;;;;5027205;28;20091;-81
2022/08/31 09:37:23;;;;;;;0.60;0.50;;;20.40;95.80;;;;;;5024226;28;20056;-83
2022/08/31 09:39:51;;;;;;;3.50;0.63;;;20.30;94.10;;;;;;5027981;28;20037;-80
2022/08/31 09:42:35;;;;;;;0.63;0.30;;;20.10;94.80;;;;;;5027172;28;20092;-82
2022/08/31 09:45:11;;;;;;;0.50;0.50;;;20.00;92.00;;;;;;5019818;28;20394;-83
2022/08/31 09:47:59;;;;;;;0.47;0.43;;;20.10;93.70;;;;;;5022951;28;20025;-83
2022/08/31 09:50:44;;;;;;;0.73;0.40;;;20.50;93.60;;;;;;5026530;28;20033;-81
2022/08/31 09:56:17;;;;;;;0.40;0.40;;;21.20;90.90;;;;;;5026501;28;20109;-81
2022/08/31 09:58:49;;;;;;;0.40;0.40;;;21.50;92.30;;;;;;5029690;28;20480;-81
2022/08/31 10:01:43;;;;;;;0.30;0.30;;;21.60;90.10;;;;;;5013287;28;20480;-81
2022/08/31 10:04:25;;;;;;;0.30;0.30;;;21.50;87.40;;;;;;5028162;28;20488;-82
2022/08/31 10:07:28;;;;;;;0.50;0.38;;;21.80;85.80;;;;;;5025239;28;20404;-81
2022/08/31 10:09:59;;;;;;;0.40;0.40;;;21.60;82.70;;;;;;5020192;28;20033;-82
2022/08/31 10:12:51;;;;;;;0.50;0.50;;;21.90;84.60;;;;;;5023071;28;20057;-80
2022/08/31 10:15:24;;;;;;;0.38;0.38;;;22.00;84.50;;;;;;5015821;28;20038;-81
2022/08/31 10:18:12;;;;;;;0.40;0.40;;;22.30;81.60;;;;;;5030550;28;20082;-79
2022/08/31 10:20:45;;;;;;;0.63;0.30;;;22.50;80.40;;;;;;5031057;28;20025;-80
2022/08/31 10:23:32;;;;;;;0.30;0.30;;;22.50;81.40;;;;;;5027497;28;20025;-81
2022/08/31 10:26:03;;;;;;;0.30;0.30;;;22.70;81.70;;;;;;5028484;28;20029;-79
2022/08/31 10:28:30;;;;;;;;;;;22.80;80.60;;;;;;5029990;28;20021;-83
2022/08/31 10:31:12;;;;;;;2.05;0.55;;;22.90;77.40;;;;;;5029337;28;20015;-82
2022/08/31 10:36:42;;;;;;;0.40;0.40;;;23.60;73.40;;;;;;5026886;28;20188;-80
2022/08/31 10:39:23;;;;;;;0.40;0.40;;;23.30;75.40;;;;;;5028633;28;20040;-81
2022/08/31 10:41:49;;;;;;;0.60;0.60;;;23.70;74.00;;;;;;5030449;28;20037;-84
2022/08/31 10:44:26;;;;;;;0.40;0.40;;;23.90;73.40;;;;;;5029315;28;20034;-80
2022/08/31 10:47:01;;;;;;;0.40;0.40;;;23.80;69.60;;;;;;5029296;28;20507;-82
2022/08/31 10:49:27;;;;;;;0.47;0.38;;;24.10;71.70;;;;;;5028051;28;20057;-82
2022/08/31 10:52:02;;;;;;;0.22;0.22;;;23.70;69.70;;;;;;5028383;28;20464;-81
2022/08/31 10:54:44;;;;;;;0.47;0.47;;;23.20;71.60;;;;;;5009288;28;20065;-81
2022/08/31 10:57:12;;;;;;;0.32;0.32;;;23.70;73.40;;;;;;5028152;28;20056;-81
2022/08/31 10:59:57;;;;;;;2.00;0.43;;;24.30;72.10;;;;;;5025183;28;21258;-81
2022/08/31 11:02:55;;;;;;;0.77;0.50;;;24.60;72.00;;;;;;5029087;28;20033;-85
2022/08/31 11:05:39;;;;;;;0.40;0.40;;;24.80;68.20;;;;;;5030005;28;20076;-81
2022/08/31 11:08:16;;;;;;;0.40;0.40;;;25.30;69.90;;;;;;5025227;28;20487;-81
2022/08/31 11:10:48;;;;;;;0.30;0.30;;;25.50;66.30;;;;;;5028944;28;20056;-81
2022/08/31 11:13:46;;;;;;;0.60;0.60;;;25.50;65.80;;;;;;5029617;28;20029;-80
2022/08/31 11:16:31;;;;;;;0.35;0.35;;;25.40;65.60;;;;;;5029278;28;20044;-80
2022/08/31 11:19:26;;;;;;;0.43;0.43;;;25.70;63.90;;;;;;5029446;28;20033;-80
2022/08/31 11:22:27;;;;;;;0.40;0.40;;;25.20;65.00;;;;;;5028256;28;20041;-80
2022/08/31 11:25:29;;;;;;;0.77;0.70;;;27.70;57.80;;;;;;5027855;28;20021;-81
2022/08/31 11:28:11;;;;;;;1.25;0.38;;;31.90;48.80;;;;;;5024526;28;20480;-80
2022/08/31 11:30:45;;;;;;;0.50;0.50;;;32.50;45.20;;;;;;5025922;28;20041;-82
2022/08/31 11:33:18;;;;;;;0.70;0.60;;;30.20;49.20;;;;;;5022901;28;20037;-81
2022/08/31 11:36:10;;;;;;;0.30;0.30;;;29.20;48.90;;;;;;5026419;28;20571;-79
2022/08/31 11:39:14;;;;;;;0.30;0.30;;;27.40;53.40;;;;;;5029453;28;20476;-81
2022/08/31 11:41:48;;;;;;;0.30;0.30;;;28.20;54.20;;;;;;5024702;28;20041;-82
2022/08/31 11:44:28;;;;;;;0.50;0.50;;;29.20;52.00;;;;;;5027904;28;20029;-79
2022/08/31 11:47:11;;;;;;;1.08;0.52;;;30.20;50.70;;;;;;5028777;28;20490;-80
2022/08/31 11:49:44;;;;;;;0.45;0.40;;;29.80;50.50;;;;;;5029385;28;20483;-79
2022/08/31 11:52:33;;;;;;;0.30;0.30;;;28.20;51.10;;;;;;5026268;28;20033;-80
2022/08/31 11:55:05;;;;;;;0.88;0.57;;;27.00;52.10;;;;;;5008436;28;20480;-80
2022/08/31 11:57:55;;;;;;;0.73;0.73;;;28.50;53.00;;;;;;5026476;28;20072;-80
2022/08/31 12:00:21;;;;;;;1.80;0.43;;;30.60;49.40;;;;;;5020720;28;20021;-80
2022/08/31 12:03:08;;;;;;;0.30;0.30;;;30.70;47.40;;;;;;5026625;28;20030;-79
2022/08/31 12:05:55;;;;;;;0.60;0.40;;;34.00;44.40;;;;;;5020045;28;20021;-80
2022/08/31 12:08:21;;;;;;;0.43;0.43;;;35.80;40.80;;;;;;5027173;28;20116;-80
2022/08/31 12:10:52;;;;;;;0.30;0.30;;;33.10;42.30;;;;;;5027333;28;20065;-81
2022/08/31 12:13:44;;;;;;;0.32;0.32;;;29.90;46.30;;;;;;5028021;28;20047;-80
2022/08/31 12:16:23;;;;;;;0.75;0.40;;;28.10;51.30;;;;;;5024634;28;20037;-80
2022/08/31 12:19:22;;;;;;;0.57;0.43;;;28.90;47.90;;;;;;5015310;28;20030;-81
2022/08/31 12:25:27;;;;;;;0.40;0.40;;;35.50;39.40;;;;;;4985057;28;20496;-80
2022/08/31 12:28:09;;;;;;;1.20;0.60;;;38.40;35.70;;;;;;4986314;28;20030;-81
2022/08/31 12:30:35;;;;;;;0.30;0.30;;;40.20;33.50;;;;;;4983539;28;20102;-81
2022/08/31 12:33:10;;;;;;;0.55;0.50;;;39.60;32.10;;;;;;4985572;28;20053;-80
2022/08/31 12:35:35;;;;;;;0.30;0.30;;;35.00;36.50;;;;;;4989222;28;20057;-82
2022/08/31 12:38:07;;;;;;;0.32;0.32;;;33.70;37.30;;;;;;4980984;28;20031;-82
2022/08/31 12:40:40;;;;;;;0.25;0.25;;;31.10;41.20;;;;;;4981195;28;20077;-80
2022/08/31 12:43:18;;;;;;;0.30;0.30;;;30.10;43.50;;;;;;4970263;28;20425;-81
2022/08/31 12:46:08;;;;;;;0.75;0.43;;;29.60;46.40;;;;;;4979636;28;20027;-80
2022/08/31 12:49:16;;;;;;;0.35;0.35;;;31.60;42.80;;;;;;4985031;28;20073;-85
2022/08/31 12:51:48;;;;;;;1.00;0.55;;;34.10;38.20;;;;;;4986499;28;20050;-81
2022/08/31 12:54:34;;;;;;;0.30;0.30;;;36.80;33.10;;;;;;5025192;28;20053;-82
2022/08/31 12:57:32;;;;;;;0.45;0.40;;;39.00;31.70;;;;;;5026705;28;20036;-81
2022/08/31 13:00:30;;;;;;;0.43;0.32;;;40.90;30.60;;;;;;5026286;28;20018;-80
2022/08/31 13:03:13;;;;;;;0.40;0.40;;;38.20;30.80;;;;;;5021418;28;20041;-81
2022/08/31 13:05:38;;;;;;;0.55;0.55;;;33.60;36.30;;;;;;5022427;28;20025;-80
2022/08/31 13:08:25;;;;;;;0.38;0.38;;;30.50;40.50;;;;;;5027197;28;20068;-79
2022/08/31 13:10:50;;;;;;;0.20;0.20;;;32.40;42.40;;;;;;5030925;28;20017;-82
2022/08/31 13:13:26;;;;;;;0.30;0.30;;;35.30;36.60;;;;;;5021973;28;20047;-80
2022/08/31 13:16:03;;;;;;;0.50;0.50;;;36.40;34.00;;;;;;5024476;28;20115;-79
2022/08/31 13:18:29;;;;;;;0.43;0.43;;;33.00;39.10;;;;;;5021487;28;20037;-79
2022/08/31 13:21:04;;;;;;;0.52;0.30;;;30.60;43.00;;;;;;5025616;28;20041;-79
2022/08/31 13:23:44;;;;;;;0.30;0.30;;;32.60;43.20;;;;;;5030819;28;20108;-80
2022/08/31 13:26:23;;;;;;;0.40;0.40;;;34.80;39.00;;;;;;5028244;28;20022;-79
2022/08/31 13:28:57;;;;;;;0.40;0.40;;;36.40;36.60;;;;;;5030243;28;20038;-79